LGKR/CFU METAR and TAF weather

Enter ICAO airport designator
Station Type Date Time Source
LGKR METAR 2022/06/26 07:50 UTC NOAA

LGKR 260750Z 12004KT CAVOK 29/21 Q1013 NOSIG


Station Type Date Time Source
LGKR Decoded METAR 2022/06/26 07:50 UTC NOAA

Kerkyra Airport , Greece (LGKR) 39-37N 019-55E 4M
Jun 26, 2022 - 03:50 AM EDT / 2022.06.26 0750 UTC
Wind: from the ESE (120 degrees) at 5 MPH (4 KT):0
Visibility: greater than 7 mile(s):0
Temperature: 84 F (29 C)
Dew Point: 69 F (21 C)
Relative Humidity: 62%
Pressure (altimeter): 29.91 in. Hg (1013 hPa)
ob: LGKR 260750Z 12004KT CAVOK 29/21 Q1013 NOSIG
cycle: 8

Station Type Date Time Source
LGKR TAF 2022/06/26 06:17 UTC NOAA

TAF LGKR 260500Z 2606/2706 VRB05KT 9999 FEW025
TEMPO 2609/2615 34012KT

Example: see airport list